createdAt,value
2023-02-19T00:00:05.563Z,98993.44
2023-02-19T00:02:41.934Z,98988.73
2023-02-19T00:05:10.553Z,98986.69
2023-02-19T00:07:39.299Z,98985.50
2023-02-19T00:10:08.811Z,98983.55
2023-02-19T00:12:37.767Z,98985.15
2023-02-19T00:15:07.922Z,98989.77
2023-02-19T00:17:36.602Z,98990.23
2023-02-19T00:20:07.951Z,98990.73
2023-02-19T00:22:36.592Z,98988.57
2023-02-19T00:25:06.039Z,98993.45
2023-02-19T00:27:35.238Z,98996.45
2023-02-19T00:30:05.123Z,99000.88
2023-02-19T00:32:34.468Z,99000.14
2023-02-19T00:35:02.845Z,98997.69
2023-02-19T00:37:32.750Z,98997.55
2023-02-19T00:40:01.256Z,99000.34
2023-02-19T00:42:30.329Z,99000.05
2023-02-19T00:44:58.927Z,98997.52
2023-02-19T00:47:27.504Z,98997.67
2023-02-19T00:49:55.972Z,98998.19
2023-02-19T00:52:24.623Z,98999.31
2023-02-19T00:54:53.407Z,99000.80
2023-02-19T00:57:22.341Z,99000.84
2023-02-19T00:59:50.932Z,99002.15
2023-02-19T01:02:20.158Z,99001.60
2023-02-19T01:04:51.258Z,99003.33
2023-02-19T01:07:19.947Z,99000.92
2023-02-19T01:09:48.451Z,99003.72
2023-02-19T01:12:17.664Z,99002.10
2023-02-19T01:14:46.636Z,99000.42
2023-02-19T01:17:16.433Z,99006.87
2023-02-19T01:19:44.911Z,99003.48
2023-02-19T01:22:13.653Z,99003.44
2023-02-19T01:24:42.110Z,99007.55
2023-02-19T01:27:10.572Z,99005.98
2023-02-19T01:29:39.654Z,99002.16
2023-02-19T01:32:08.603Z,98999.08
2023-02-19T01:34:42.254Z,99001.36
2023-02-19T01:37:12.381Z,98997.29
2023-02-19T01:39:41.567Z,98997.12
2023-02-19T01:42:14.612Z,98996.27
2023-02-19T01:44:42.987Z,98999.13
2023-02-19T01:47:12.170Z,98998.64
2023-02-19T01:49:49.035Z,99000.09
2023-02-19T01:52:32.850Z,98999.90
2023-02-19T01:55:02.667Z,99002.19
2023-02-19T01:57:35.132Z,99002.98
2023-02-19T02:00:06.642Z,99005.02
2023-02-19T02:02:43.010Z,99007.37
2023-02-19T02:05:41.398Z,99007.89
2023-02-19T02:08:30.171Z,99004.18
2023-02-19T02:10:58.693Z,99004.34
2023-02-19T02:13:27.242Z,99007.67
2023-02-19T02:16:11.576Z,99012.84
2023-02-19T02:18:57.092Z,99016.73
2023-02-19T02:21:44.826Z,99019.12
2023-02-19T02:24:27.742Z,99023.88
2023-02-19T02:27:34.470Z,99024.48
2023-02-19T02:30:37.736Z,99027.08
2023-02-19T02:33:19.729Z,99027.09
2023-02-19T02:35:57.327Z,99029.85
2023-02-19T02:38:29.455Z,99027.02
2023-02-19T02:40:57.893Z,99029.80
2023-02-19T02:43:26.450Z,99035.96
2023-02-19T02:45:55.986Z,99035.93
2023-02-19T02:48:43.790Z,99037.92
2023-02-19T02:51:25.066Z,99039.05
2023-02-19T02:54:24.168Z,99041.42
2023-02-19T02:56:52.644Z,99044.98
2023-02-19T02:59:24.000Z,99043.48
2023-02-19T03:02:11.278Z,99042.21
2023-02-19T03:05:20.889Z,99040.44
2023-02-19T03:07:59.617Z,99039.78
2023-02-19T03:10:51.067Z,99039.11
2023-02-19T03:13:53.541Z,99043.61
2023-02-19T03:16:46.257Z,99045.81
2023-02-19T03:19:22.144Z,99046.40
2023-02-19T03:22:03.473Z,99044.00
2023-02-19T03:24:51.321Z,99046.55
2023-02-19T03:27:20.352Z,99048.86
2023-02-19T03:29:50.512Z,99047.36
2023-02-19T03:32:24.523Z,99048.67
2023-02-19T03:35:03.815Z,99048.90
2023-02-19T03:37:47.437Z,99052.39
2023-02-19T03:40:17.335Z,99056.50
2023-02-19T03:43:20.224Z,99055.21
2023-02-19T03:45:55.174Z,99057.70
2023-02-19T03:49:04.671Z,99058.32
2023-02-19T03:51:45.173Z,99059.28
2023-02-19T03:54:37.782Z,99054.94
2023-02-19T03:57:08.978Z,99062.06
2023-02-19T03:59:49.501Z,99064.66
2023-02-19T04:02:32.347Z,99067.81
2023-02-19T04:05:14.554Z,99071.22
2023-02-19T04:07:46.287Z,99070.86
2023-02-19T04:10:15.406Z,99068.71
2023-02-19T04:13:09.012Z,99072.91
2023-02-19T04:15:38.453Z,99078.34
2023-02-19T04:18:12.820Z,99082.07
2023-02-19T04:20:44.014Z,99081.19
2023-02-19T04:23:13.102Z,99089.88
2023-02-19T04:25:42.710Z,99096.88
2023-02-19T04:28:11.575Z,99099.20
2023-02-19T04:30:40.147Z,99104.17
2023-02-19T04:33:11.397Z,99105.52
2023-02-19T04:35:40.008Z,99107.09
2023-02-19T04:38:08.850Z,99111.84
2023-02-19T04:40:37.837Z,99115.00
2023-02-19T04:43:06.989Z,99119.45
2023-02-19T04:45:37.880Z,99122.38
2023-02-19T04:48:06.257Z,99130.77
2023-02-19T04:50:34.826Z,99131.91
2023-02-19T04:53:04.015Z,99135.11
2023-02-19T04:55:37.122Z,99134.55
2023-02-19T04:58:05.524Z,99133.98
2023-02-19T05:00:34.567Z,99134.73
2023-02-19T05:03:03.026Z,99135.42
2023-02-19T05:05:31.816Z,99136.37
2023-02-19T05:08:05.433Z,99140.25
2023-02-19T05:10:34.925Z,99141.08
2023-02-19T05:13:03.299Z,99140.10
2023-02-19T05:15:33.555Z,99141.02
2023-02-19T05:18:02.018Z,99139.43
2023-02-19T05:20:30.484Z,99145.71
2023-02-19T05:22:59.205Z,99147.81
2023-02-19T05:25:27.669Z,99151.27
2023-02-19T05:28:16.103Z,99153.30
2023-02-19T05:30:51.809Z,99154.78
2023-02-19T05:33:21.053Z,99154.73
2023-02-19T05:35:51.333Z,99156.36
2023-02-19T05:38:20.469Z,99152.83
2023-02-19T05:40:49.166Z,99151.30
2023-02-19T05:43:38.665Z,99151.34
2023-02-19T05:46:07.653Z,99151.17
2023-02-19T05:48:36.627Z,99155.67
2023-02-19T05:51:15.948Z,99158.35
2023-02-19T05:53:45.182Z,99162.43
2023-02-19T05:56:37.390Z,99156.02
2023-02-19T05:59:08.747Z,99156.23
2023-02-19T06:01:38.035Z,99156.40
2023-02-19T06:04:06.674Z,99155.70
2023-02-19T06:06:35.373Z,99158.14
2023-02-19T06:09:05.127Z,99150.48
2023-02-19T06:11:33.708Z,99149.33
2023-02-19T06:14:02.146Z,99150.08
2023-02-19T06:16:32.400Z,99143.73
2023-02-19T06:19:04.232Z,99141.40
2023-02-19T06:21:33.821Z,99141.80
2023-02-19T06:24:08.010Z,99140.05
2023-02-19T06:26:37.512Z,99142.24
2023-02-19T06:29:06.138Z,99144.43
2023-02-19T06:31:35.132Z,99142.76
2023-02-19T06:34:05.203Z,99137.25
2023-02-19T06:36:34.567Z,99138.27
2023-02-19T06:39:04.039Z,99145.65
2023-02-19T06:41:33.527Z,99147.00
2023-02-19T06:44:02.325Z,99146.14
2023-02-19T06:46:31.342Z,99150.98
2023-02-19T06:49:00.196Z,99149.19
2023-02-19T06:51:29.949Z,99149.75
2023-02-19T06:54:02.694Z,99151.52
2023-02-19T06:56:33.523Z,99148.52
2023-02-19T06:59:03.164Z,99152.22
2023-02-19T07:01:32.517Z,99151.27
2023-02-19T07:04:02.553Z,99146.75
2023-02-19T07:06:31.533Z,99145.11
2023-02-19T07:09:00.432Z,99147.11
2023-02-19T07:11:31.863Z,99141.60
2023-02-19T07:14:01.569Z,99138.99
2023-02-19T07:16:30.721Z,99137.71
2023-02-19T07:19:00.132Z,99139.52
2023-02-19T07:21:32.238Z,99134.20
2023-02-19T07:24:01.533Z,99135.54
2023-02-19T07:26:34.727Z,99132.35
2023-02-19T07:29:03.158Z,99132.87
2023-02-19T07:31:31.859Z,99131.19
2023-02-19T07:34:01.013Z,99131.11
2023-02-19T07:36:30.014Z,99137.09
2023-02-19T07:39:00.513Z,99137.67
2023-02-19T07:41:28.808Z,99134.66
2023-02-19T07:43:59.171Z,99136.41
2023-02-19T07:46:28.153Z,99131.63
2023-02-19T07:49:00.125Z,99126.38
2023-02-19T07:51:30.206Z,99122.42
2023-02-19T07:54:01.649Z,99120.13
2023-02-19T07:56:30.639Z,99113.96
2023-02-19T07:59:00.555Z,99116.56
2023-02-19T08:01:48.175Z,99113.69
2023-02-19T08:04:16.683Z,99110.34
2023-02-19T08:06:45.257Z,99113.67
2023-02-19T08:09:14.445Z,99106.36
2023-02-19T08:12:01.870Z,99113.13
2023-02-19T08:14:31.319Z,99113.77
2023-02-19T08:17:00.227Z,99116.77
2023-02-19T08:19:29.583Z,99119.77
2023-02-19T08:21:58.381Z,99123.56
2023-02-19T08:24:29.241Z,99121.10
2023-02-19T08:26:57.941Z,99116.23
2023-02-19T08:29:26.611Z,99115.65
2023-02-19T08:31:55.172Z,99113.47
2023-02-19T08:34:23.647Z,99116.73
2023-02-19T08:36:53.234Z,99116.29
2023-02-19T08:39:22.338Z,99114.16
2023-02-19T08:41:51.732Z,99116.31
2023-02-19T08:44:20.215Z,99123.36
2023-02-19T08:46:54.325Z,99124.20
2023-02-19T08:49:27.069Z,99133.20
2023-02-19T08:51:55.685Z,99134.38
2023-02-19T08:54:24.220Z,99137.69
2023-02-19T08:56:52.793Z,99136.50
2023-02-19T08:59:21.265Z,99143.34
2023-02-19T09:01:49.844Z,99140.52
2023-02-19T09:04:18.483Z,99128.27
2023-02-19T09:06:47.292Z,99132.25
2023-02-19T09:09:17.536Z,99126.95
2023-02-19T09:11:49.064Z,99117.27
2023-02-19T09:14:18.331Z,99118.55
2023-02-19T09:16:46.846Z,99118.52
2023-02-19T09:19:15.330Z,99115.84
2023-02-19T09:21:43.807Z,99120.34
2023-02-19T09:24:12.298Z,99120.05
2023-02-19T09:26:41.902Z,99124.54
2023-02-19T09:29:10.686Z,99120.29
2023-02-19T09:31:39.346Z,99121.49
2023-02-19T09:34:08.162Z,99113.52
2023-02-19T09:36:36.912Z,99112.57
2023-02-19T09:39:07.848Z,99117.48
2023-02-19T09:41:45.398Z,99121.96
2023-02-19T09:44:16.958Z,99122.67
2023-02-19T09:46:47.673Z,99124.79
2023-02-19T09:49:20.120Z,99120.92
2023-02-19T09:51:54.472Z,99118.01
2023-02-19T09:54:26.692Z,99117.56
2023-02-19T09:56:55.525Z,99118.44
2023-02-19T09:59:27.508Z,99120.25
2023-02-19T10:02:14.761Z,99116.07
2023-02-19T10:04:44.434Z,99116.07
2023-02-19T10:07:14.646Z,99114.11
2023-02-19T10:09:45.581Z,99116.36
2023-02-19T10:12:28.651Z,99116.90
2023-02-19T10:15:06.265Z,99113.61
2023-02-19T10:17:37.853Z,99118.22
2023-02-19T10:20:07.132Z,99116.69
2023-02-19T10:22:36.365Z,99122.60
2023-02-19T10:25:05.333Z,99119.27
2023-02-19T10:27:33.813Z,99117.23
2023-02-19T10:30:02.299Z,99117.08
2023-02-19T10:32:31.336Z,99117.64
2023-02-19T10:35:12.281Z,99120.19
2023-02-19T10:37:44.687Z,99119.05
2023-02-19T10:40:19.259Z,99119.45
2023-02-19T10:42:49.688Z,99128.51
2023-02-19T10:45:50.599Z,99119.02
2023-02-19T10:48:29.143Z,99123.91
2023-02-19T10:51:05.118Z,99126.85
2023-02-19T10:53:47.516Z,99131.02
2023-02-19T10:56:22.851Z,99132.87
2023-02-19T10:58:51.640Z,99138.70
2023-02-19T11:01:25.769Z,99138.51
2023-02-19T11:04:15.145Z,99143.29
2023-02-19T11:06:43.589Z,99149.25
2023-02-19T11:09:30.535Z,99150.19
2023-02-19T11:12:05.814Z,99145.34
2023-02-19T11:14:34.494Z,99149.52
2023-02-19T11:17:04.923Z,99150.40
2023-02-19T11:19:40.500Z,99145.23
2023-02-19T11:22:29.491Z,99144.35
2023-02-19T11:25:25.801Z,99139.85
2023-02-19T11:28:08.092Z,99136.80
2023-02-19T11:30:41.522Z,99136.47
2023-02-19T11:33:25.050Z,99130.25
2023-02-19T11:36:15.379Z,99133.00
2023-02-19T11:38:44.806Z,99128.31
2023-02-19T11:41:40.983Z,99126.88
2023-02-19T11:44:31.179Z,99124.20
2023-02-19T11:47:00.292Z,99124.30
2023-02-19T11:49:59.078Z,99128.10
2023-02-19T11:53:02.938Z,99123.09
2023-02-19T11:55:59.105Z,99126.14
2023-02-19T11:58:43.386Z,99129.62
2023-02-19T12:01:17.497Z,99137.90
2023-02-19T12:04:25.645Z,99142.95
2023-02-19T12:07:18.349Z,99141.14
2023-02-19T12:10:17.236Z,99145.82
2023-02-19T12:13:24.832Z,99143.94
2023-02-19T12:16:05.961Z,99145.41
2023-02-19T12:18:52.308Z,99147.58
2023-02-19T12:21:55.804Z,99151.46
2023-02-19T12:24:39.075Z,99148.26
2023-02-19T12:27:27.265Z,99146.98
2023-02-19T12:30:48.443Z,99152.33
2023-02-19T12:33:44.874Z,99157.23
2023-02-19T12:36:44.435Z,99154.35
2023-02-19T12:39:18.863Z,99154.52
2023-02-19T12:42:26.700Z,99156.84
2023-02-19T12:44:57.951Z,99173.85
2023-02-19T12:47:38.589Z,99179.23
2023-02-19T12:50:21.958Z,99177.10
2023-02-19T12:52:53.877Z,99172.31
2023-02-19T12:55:23.377Z,99168.52
2023-02-19T12:57:58.885Z,99167.05
2023-02-19T13:00:32.417Z,99169.55
2023-02-19T13:03:21.043Z,99179.61
2023-02-19T13:05:58.803Z,99187.27
2023-02-19T13:08:48.788Z,99187.98
2023-02-19T13:11:30.580Z,99197.60
2023-02-19T13:14:35.696Z,99199.14
2023-02-19T13:17:25.979Z,99204.04
2023-02-19T13:20:15.963Z,99206.85
2023-02-19T13:23:06.049Z,99203.61
2023-02-19T13:25:44.446Z,99205.04
2023-02-19T13:28:26.107Z,99205.96
2023-02-19T13:31:04.829Z,99201.43
2023-02-19T13:33:53.571Z,99207.09
2023-02-19T13:36:31.277Z,99209.16
2023-02-19T13:39:00.010Z,99206.95
2023-02-19T13:41:56.001Z,99216.18
2023-02-19T13:44:34.208Z,99214.21
2023-02-19T13:47:06.291Z,99220.27
2023-02-19T13:49:38.533Z,99220.28
2023-02-19T13:52:39.903Z,99222.69
2023-02-19T13:55:49.834Z,99224.02
2023-02-19T13:58:34.969Z,99218.55
2023-02-19T14:01:07.702Z,99220.84
2023-02-19T14:03:40.775Z,99223.79
2023-02-19T14:06:09.967Z,99224.02
2023-02-19T14:08:57.865Z,99219.86
2023-02-19T14:11:41.627Z,99224.05
2023-02-19T14:14:26.668Z,99224.63
2023-02-19T14:16:57.096Z,99222.30
2023-02-19T14:19:42.710Z,99215.17
2023-02-19T14:22:48.898Z,99211.56
2023-02-19T14:25:59.615Z,99206.21
2023-02-19T14:28:30.338Z,99209.60
2023-02-19T14:31:18.568Z,99211.75
2023-02-19T14:34:14.839Z,99211.86
2023-02-19T14:36:48.759Z,99209.03
2023-02-19T14:39:20.925Z,99212.27
2023-02-19T14:41:54.770Z,99215.20
2023-02-19T14:44:25.883Z,99212.83
2023-02-19T14:46:58.342Z,99219.81
2023-02-19T14:49:47.181Z,99222.67
2023-02-19T14:52:32.281Z,99221.34
2023-02-19T14:55:02.094Z,99219.36
2023-02-19T14:57:45.751Z,99220.05
2023-02-19T15:00:23.254Z,99221.84
2023-02-19T15:02:53.411Z,99222.73
2023-02-19T15:05:24.845Z,99225.55
2023-02-19T15:07:54.161Z,99228.05
2023-02-19T15:10:23.056Z,99227.38
2023-02-19T15:12:56.205Z,99229.80
2023-02-19T15:15:27.226Z,99235.67
2023-02-19T15:17:56.796Z,99239.20
2023-02-19T15:20:27.218Z,99246.45
2023-02-19T15:22:57.238Z,99249.83
2023-02-19T15:25:33.915Z,99254.16
2023-02-19T15:28:24.111Z,99260.93
2023-02-19T15:30:58.875Z,99258.65
2023-02-19T15:33:28.078Z,99257.48
2023-02-19T15:36:11.518Z,99251.44
2023-02-19T15:38:40.168Z,99252.17
2023-02-19T15:41:19.028Z,99252.10
2023-02-19T15:43:54.044Z,99250.31
2023-02-19T15:46:23.233Z,99249.34
2023-02-19T15:49:06.945Z,99252.29
2023-02-19T15:51:41.038Z,99253.59
2023-02-19T15:54:44.052Z,99249.67
2023-02-19T15:57:16.535Z,99251.14
2023-02-19T15:59:48.502Z,99248.85
2023-02-19T16:02:17.070Z,99243.58
2023-02-19T16:04:46.150Z,99239.86
2023-02-19T16:07:28.784Z,99241.11
2023-02-19T16:10:23.350Z,99243.28
2023-02-19T16:12:56.665Z,99251.81
2023-02-19T16:15:26.024Z,99253.00
2023-02-19T16:17:55.127Z,99260.08
2023-02-19T16:20:29.235Z,99261.48
2023-02-19T16:23:19.184Z,99261.27
2023-02-19T16:25:47.549Z,99262.37
2023-02-19T16:28:23.735Z,99262.75
2023-02-19T16:31:12.996Z,99260.59
2023-02-19T16:33:48.774Z,99264.52
2023-02-19T16:36:21.825Z,99258.67
2023-02-19T16:39:08.548Z,99255.17
2023-02-19T16:41:40.229Z,99251.36
2023-02-19T16:44:39.826Z,99256.08
2023-02-19T16:47:15.685Z,99256.17
2023-02-19T16:49:44.468Z,99258.20
2023-02-19T16:52:14.178Z,99264.51
2023-02-19T16:54:43.460Z,99266.70
2023-02-19T16:57:12.136Z,99267.50
2023-02-19T16:59:40.611Z,99262.00
2023-02-19T17:02:11.065Z,99263.67
2023-02-19T17:04:40.090Z,99264.27
2023-02-19T17:07:15.778Z,99266.85
2023-02-19T17:09:44.367Z,99262.80
2023-02-19T17:12:14.584Z,99262.58
2023-02-19T17:14:44.597Z,99262.33
2023-02-19T17:17:13.735Z,99257.80
2023-02-19T17:19:42.320Z,99252.48
2023-02-19T17:22:17.281Z,99253.08
2023-02-19T17:24:48.555Z,99254.41
2023-02-19T17:27:17.266Z,99248.98
2023-02-19T17:29:46.058Z,99242.84
2023-02-19T17:32:14.768Z,99239.70
2023-02-19T17:34:43.299Z,99243.79
2023-02-19T17:37:12.437Z,99246.55
2023-02-19T17:39:40.983Z,99243.60
2023-02-19T17:42:09.438Z,99249.18
2023-02-19T17:44:38.143Z,99253.16
2023-02-19T17:47:07.041Z,99256.46
2023-02-19T17:49:36.583Z,99250.72
2023-02-19T17:52:05.302Z,99253.52
2023-02-19T17:54:34.642Z,99252.55
2023-02-19T17:57:03.224Z,99253.55
2023-02-19T17:59:31.997Z,99254.12
2023-02-19T18:02:02.226Z,99259.04
2023-02-19T18:04:31.746Z,99261.73
2023-02-19T18:07:00.310Z,99262.96
2023-02-19T18:09:29.152Z,99261.34
2023-02-19T18:11:57.532Z,99260.27
2023-02-19T18:14:28.422Z,99262.53
2023-02-19T18:16:57.258Z,99265.09
2023-02-19T18:19:26.199Z,99271.07
2023-02-19T18:21:54.936Z,99276.82
2023-02-19T18:24:23.528Z,99285.88
2023-02-19T18:26:55.474Z,99288.91
2023-02-19T18:29:26.196Z,99293.32
2023-02-19T18:31:57.817Z,99294.11
2023-02-19T18:34:26.504Z,99292.48
2023-02-19T18:36:54.999Z,99293.89
2023-02-19T18:39:25.007Z,99299.63
2023-02-19T18:41:53.542Z,99297.65
2023-02-19T18:44:23.133Z,99295.09
2023-02-19T18:46:51.572Z,99291.05
2023-02-19T18:49:20.184Z,99287.85
2023-02-19T18:51:48.689Z,99289.60
2023-02-19T18:54:17.749Z,99291.11
2023-02-19T18:56:46.989Z,99297.54
2023-02-19T18:59:15.929Z,99301.68
2023-02-19T19:01:44.477Z,99299.88
2023-02-19T19:04:14.347Z,99301.92
2023-02-19T19:06:43.929Z,99297.63
2023-02-19T19:09:12.409Z,99302.20
2023-02-19T19:11:41.923Z,99300.09
2023-02-19T19:14:10.807Z,99298.33
2023-02-19T19:16:40.870Z,99301.23
2023-02-19T19:19:09.746Z,99297.33
2023-02-19T19:21:38.509Z,99296.77
2023-02-19T19:24:07.463Z,99293.02
2023-02-19T19:26:36.084Z,99294.51
2023-02-19T19:29:04.767Z,99293.29
2023-02-19T19:31:34.946Z,99294.75
2023-02-19T19:34:04.094Z,99297.35
2023-02-19T19:36:33.144Z,99299.93
2023-02-19T19:39:02.333Z,99298.90
2023-02-19T19:41:31.668Z,99295.27
2023-02-19T19:44:05.645Z,99292.67
2023-02-19T19:46:34.866Z,99292.29
2023-02-19T19:49:05.931Z,99294.70
2023-02-19T19:51:36.217Z,99292.27
2023-02-19T19:54:05.276Z,99287.82
2023-02-19T19:56:40.629Z,99288.39
2023-02-19T19:59:13.202Z,99290.80
2023-02-19T20:02:08.266Z,99289.48
2023-02-19T20:04:37.263Z,99291.25
2023-02-19T20:07:06.402Z,99291.41
2023-02-19T20:09:37.303Z,99294.06
2023-02-19T20:12:06.998Z,99291.30
2023-02-19T20:14:35.587Z,99290.20
2023-02-19T20:17:09.815Z,99288.11
2023-02-19T20:19:39.658Z,99284.04
2023-02-19T20:22:08.320Z,99283.41
2023-02-19T20:24:37.093Z,99287.73
2023-02-19T20:27:05.599Z,99287.59
2023-02-19T20:29:34.778Z,99285.63
2023-02-19T20:32:03.997Z,99281.75
2023-02-19T20:34:33.938Z,99277.48
2023-02-19T20:37:02.752Z,99273.22
2023-02-19T20:39:32.076Z,99275.01
2023-02-19T20:42:00.960Z,99279.94
2023-02-19T20:44:32.144Z,99278.39
2023-02-19T20:47:00.820Z,99278.35
2023-02-19T20:49:30.650Z,99280.65
2023-02-19T20:52:01.259Z,99278.92
2023-02-19T20:54:32.050Z,99280.45
2023-02-19T20:57:02.707Z,99278.83
2023-02-19T20:59:35.344Z,99284.80
2023-02-19T21:02:06.667Z,99286.31
2023-02-19T21:04:37.771Z,99284.15
2023-02-19T21:07:07.294Z,99279.86
2023-02-19T21:09:36.052Z,99282.08
2023-02-19T21:12:05.542Z,99278.63
2023-02-19T21:14:37.192Z,99277.77
2023-02-19T21:17:06.796Z,99279.27
2023-02-19T21:19:40.437Z,99278.87
2023-02-19T21:22:09.011Z,99282.96
2023-02-19T21:24:37.806Z,99278.95
2023-02-19T21:27:06.720Z,99281.80
2023-02-19T21:29:35.075Z,99280.84
2023-02-19T21:32:03.689Z,99278.80
2023-02-19T21:34:32.248Z,99278.07
2023-02-19T21:37:02.152Z,99274.50
2023-02-19T21:39:32.694Z,99280.10
2023-02-19T21:42:03.936Z,99276.70
2023-02-19T21:44:32.933Z,99279.23
2023-02-19T21:47:02.918Z,99271.77
2023-02-19T21:49:31.937Z,99274.69
2023-02-19T21:52:01.439Z,99271.86
2023-02-19T21:54:30.228Z,99271.70
2023-02-19T21:57:01.692Z,99274.88
2023-02-19T21:59:30.133Z,99275.52
2023-02-19T22:01:58.851Z,99275.95
2023-02-19T22:04:27.978Z,99275.06
2023-02-19T22:06:56.909Z,99274.26
2023-02-19T22:09:26.477Z,99275.31
2023-02-19T22:11:55.058Z,99272.79
2023-02-19T22:14:23.433Z,99270.92
2023-02-19T22:16:52.430Z,99272.14
2023-02-19T22:19:20.977Z,99271.29
2023-02-19T22:21:49.594Z,99274.06
2023-02-19T22:24:20.174Z,99273.07
2023-02-19T22:26:50.818Z,99270.21
2023-02-19T22:29:19.461Z,99266.17
2023-02-19T22:31:49.932Z,99266.05
2023-02-19T22:34:18.433Z,99264.77
2023-02-19T22:36:48.877Z,99263.12
2023-02-19T22:39:37.329Z,99259.28
2023-02-19T22:42:06.524Z,99264.06
2023-02-19T22:44:37.055Z,99266.48
2023-02-19T22:47:05.641Z,99269.70
2023-02-19T22:49:37.323Z,99271.03
2023-02-19T22:52:08.115Z,99273.04
2023-02-19T22:54:37.134Z,99267.55
2023-02-19T22:57:05.808Z,99268.41
2023-02-19T22:59:34.571Z,99268.15
2023-02-19T23:02:02.950Z,99271.24
2023-02-19T23:04:31.987Z,99271.46
2023-02-19T23:07:00.661Z,99275.50
2023-02-19T23:09:29.925Z,99273.92
2023-02-19T23:12:02.397Z,99273.10
2023-02-19T23:14:32.868Z,99271.08
2023-02-19T23:17:01.631Z,99268.79
2023-02-19T23:19:32.837Z,99266.23
2023-02-19T23:22:02.035Z,99268.75
2023-02-19T23:24:31.022Z,99263.61
2023-02-19T23:27:00.826Z,99257.30
2023-02-19T23:29:31.056Z,99260.08
2023-02-19T23:32:00.534Z,99259.27
2023-02-19T23:34:29.730Z,99262.31
2023-02-19T23:37:02.812Z,99264.73
2023-02-19T23:39:32.253Z,99262.50
2023-02-19T23:42:02.439Z,99259.63
2023-02-19T23:44:31.531Z,99263.63
2023-02-19T23:47:00.121Z,99263.30
2023-02-19T23:49:28.737Z,99262.88
2023-02-19T23:51:57.112Z,99259.41
2023-02-19T23:54:26.188Z,99256.76
2023-02-19T23:56:55.680Z,99255.80
2023-02-19T23:59:24.153Z,99254.09
